Time;durP1;ratioP1;P1;durP2;ratioP2;P2;SDS_P1;SDS_P2;PMS_P1;PMS_P2;Temp;Humidity;BMP_temperature;BMP_pressure;BME280_temperature;BME280_humidity;BME280_pressure;Samples;Min_cycle;Max_cycle;Signal;HPM_P1;HPM_P2
2021/12/12 00:01:20;;;;;;;6.20;5.70;;;6.40;99.90;;;;;;5013951;28;20415;-55
2021/12/12 00:03:52;;;;;;;8.10;6.10;;;6.50;99.90;;;;;;5014087;28;20399;-56
2021/12/12 00:06:20;;;;;;;6.47;5.87;;;6.60;99.90;;;;;;5013495;28;20426;-55
2021/12/12 00:08:52;;;;;;;5.93;5.43;;;6.60;99.90;;;;;;5013911;28;20402;-53
2021/12/12 00:11:22;;;;;;;6.00;4.70;;;6.60;99.90;;;;;;5013353;28;20905;-56
2021/12/12 00:13:57;;;;;;;5.03;4.53;;;6.60;99.90;;;;;;5013870;28;20455;-56
2021/12/12 00:16:23;;;;;;;6.90;6.20;;;6.70;99.90;;;;;;5010919;28;20466;-55
2021/12/12 00:18:49;;;;;;;6.57;5.70;;;6.70;99.90;;;;;;4976657;28;20500;-55
2021/12/12 00:21:18;;;;;;;7.30;5.80;;;6.70;99.90;;;;;;4974329;28;20978;-55
2021/12/12 00:23:44;;;;;;;5.67;5.17;;;6.70;99.90;;;;;;4974677;28;20401;-56
2021/12/12 00:26:10;;;;;;;6.30;5.67;;;6.60;99.90;;;;;;4974341;28;20413;-56
2021/12/12 00:28:36;;;;;;;6.10;5.10;;;6.60;99.90;;;;;;4976505;28;20423;-57
2021/12/12 00:31:10;;;;;;;5.03;4.50;;;6.60;99.90;;;;;;4966050;28;20513;-57
2021/12/12 00:33:38;;;;;;;6.60;6.00;;;6.50;99.90;;;;;;4974805;28;20528;-54
2021/12/12 00:36:05;;;;;;;6.50;4.73;;;6.40;99.90;;;;;;4974279;28;20398;-57
2021/12/12 00:38:32;;;;;;;5.67;5.00;;;6.40;99.90;;;;;;4974641;28;20416;-56
2021/12/12 00:41:04;;;;;;;5.37;4.80;;;6.40;99.90;;;;;;5009096;28;20842;-57
2021/12/12 00:43:36;;;;;;;4.97;4.50;;;6.40;99.90;;;;;;5013772;28;20407;-55
2021/12/12 00:46:05;;;;;;;4.40;4.00;;;6.40;99.90;;;;;;5013525;28;20494;-54
2021/12/12 00:48:34;;;;;;;5.13;4.10;;;6.40;99.90;;;;;;5013429;28;20407;-55
2021/12/12 00:51:03;;;;;;;5.10;4.70;;;6.50;99.90;;;;;;5013509;28;20418;-56
2021/12/12 00:53:31;;;;;;;7.37;6.57;;;6.50;99.90;;;;;;5013493;28;20537;-56
2021/12/12 00:55:57;;;;;;;8.60;6.70;;;6.40;99.90;;;;;;5013248;28;20409;-57
2021/12/12 00:58:23;;;;;;;5.83;5.20;;;6.50;99.90;;;;;;5013290;28;20453;-54
2021/12/12 01:01:27;;;;;;;4.87;4.47;;;6.40;99.90;;;;;;5013566;28;20165;-54
2021/12/12 01:04:02;;;;;;;4.70;4.30;;;6.50;99.90;;;;;;4972676;28;20422;-55
2021/12/12 01:06:28;;;;;;;5.90;5.27;;;6.40;99.90;;;;;;5008084;28;20434;-57
2021/12/12 01:08:57;;;;;;;6.30;5.63;;;6.40;99.90;;;;;;5013885;28;20437;-56
2021/12/12 01:11:34;;;;;;;5.67;5.17;;;6.30;99.90;;;;;;5012901;28;20486;-56
2021/12/12 01:14:00;;;;;;;6.63;5.30;;;6.40;99.90;;;;;;5013215;28;20944;-55
2021/12/12 01:16:34;;;;;;;6.10;5.60;;;6.30;99.90;;;;;;5013366;28;20426;-54
2021/12/12 01:19:12;;;;;;;5.97;5.00;;;6.30;99.90;;;;;;5016431;28;20787;-56
2021/12/12 01:21:42;;;;;;;6.17;5.67;;;6.40;99.90;;;;;;5016377;28;20381;-57
2021/12/12 01:24:19;;;;;;;6.77;5.93;;;6.40;99.90;;;;;;5017211;28;20454;-54
2021/12/12 01:26:46;;;;;;;6.57;5.93;;;6.30;99.90;;;;;;5016437;28;20446;-56
2021/12/12 01:29:13;;;;;;;6.30;5.70;;;6.40;99.90;;;;;;5016852;28;20404;-56
2021/12/12 01:31:46;;;;;;;5.73;5.23;;;6.40;99.90;;;;;;5016953;28;20404;-55
2021/12/12 01:34:24;;;;;;;6.73;5.80;;;6.50;99.90;;;;;;5016455;28;20435;-54
2021/12/12 01:37:10;;;;;;;7.40;6.60;;;6.30;99.90;;;;;;5016546;28;20829;-54
2021/12/12 01:39:43;;;;;;;6.90;6.20;;;6.30;99.90;;;;;;5016609;28;20406;-53
2021/12/12 01:42:14;;;;;;;6.30;5.70;;;6.30;99.90;;;;;;5016087;28;20413;-56
2021/12/12 01:44:46;;;;;;;7.07;5.20;;;6.30;99.90;;;;;;5016251;28;20384;-51
2021/12/12 01:47:35;;;;;;;6.17;5.60;;;6.40;99.90;;;;;;5016567;28;20535;-55
2021/12/12 01:50:07;;;;;;;9.67;6.00;;;6.40;99.90;;;;;;5016157;28;20379;-56
2021/12/12 01:52:32;;;;;;;6.53;5.93;;;6.20;99.90;;;;;;5015876;28;20391;-53
2021/12/12 01:55:13;;;;;;;6.70;5.80;;;6.30;99.90;;;;;;5015978;28;20503;-56
2021/12/12 01:57:39;;;;;;;6.37;5.73;;;6.40;99.90;;;;;;5015952;28;21039;-55
2021/12/12 02:00:15;;;;;;;7.70;5.90;;;6.40;99.90;;;;;;5016113;28;20834;-57
2021/12/12 02:02:42;;;;;;;7.03;6.33;;;6.50;99.90;;;;;;5015994;28;20406;-54
2021/12/12 02:05:15;;;;;;;6.50;5.90;;;6.50;99.90;;;;;;5015610;28;20441;-56
2021/12/12 02:07:43;;;;;;;6.50;5.90;;;6.60;99.90;;;;;;5016133;28;20810;-56
2021/12/12 02:10:18;;;;;;;6.17;5.57;;;6.60;99.90;;;;;;5015727;28;20770;-53
2021/12/12 02:12:45;;;;;;;5.40;4.90;;;6.60;99.90;;;;;;5015813;28;20871;-56
2021/12/12 02:15:12;;;;;;;6.93;6.20;;;6.40;99.90;;;;;;5015757;28;20436;-56
2021/12/12 02:17:44;;;;;;;6.80;6.10;;;6.30;99.90;;;;;;5015806;28;20427;-55
2021/12/12 02:20:29;;;;;;;6.90;6.20;;;6.30;99.90;;;;;;5015702;28;20383;-55
2021/12/12 02:36:52;;;;;;;5.97;5.10;;;6.40;99.90;;;;;;4976335;28;20420;-56
2021/12/12 02:39:18;;;;;;;6.93;5.60;;;6.40;99.90;;;;;;4984625;28;20843;-56
2021/12/12 02:41:50;;;;;;;8.80;6.80;;;6.40;99.90;;;;;;5015120;28;20407;-56
2021/12/12 02:44:21;;;;;;;7.23;5.53;;;6.30;99.90;;;;;;5015716;28;20973;-54
2021/12/12 02:46:49;;;;;;;7.53;6.77;;;6.30;99.90;;;;;;5015165;28;20940;-56
2021/12/12 02:51:59;;;;;;;6.63;5.70;;;6.40;99.90;;;;;;5015383;28;20411;-55
2021/12/12 02:54:26;;;;;;;6.53;5.90;;;6.50;99.90;;;;;;5015292;28;20960;-54
2021/12/12 02:56:51;;;;;;;5.70;4.97;;;6.40;99.90;;;;;;5037558;23;20200;-59
2021/12/12 02:59:24;;;;;;;6.57;5.90;;;6.40;99.90;;;;;;4984398;28;20435;-61
2021/12/12 03:02:00;;;;;;;6.30;5.70;;;6.40;99.90;;;;;;4975199;28;20166;-61
2021/12/12 03:04:27;;;;;;;5.93;4.90;;;6.40;99.90;;;;;;4975551;28;20393;-62
2021/12/12 03:06:52;;;;;;;6.47;5.60;;;6.30;99.90;;;;;;4975119;28;20405;-61
2021/12/12 03:09:26;;;;;;;5.47;4.97;;;6.30;99.90;;;;;;4975337;28;20405;-62
2021/12/12 03:11:57;;;;;;;5.47;4.97;;;6.30;99.90;;;;;;4974950;28;20412;-62
2021/12/12 03:14:24;;;;;;;10.67;4.63;;;6.10;99.90;;;;;;4975118;28;20440;-62
2021/12/12 03:16:49;;;;;;;5.87;5.27;;;6.10;99.90;;;;;;4975218;28;20406;-62
2021/12/12 03:19:19;;;;;;;5.00;4.50;;;6.10;99.90;;;;;;4975399;28;20766;-62
2021/12/12 03:21:46;;;;;;;6.27;4.27;;;6.20;99.90;;;;;;4974876;28;20165;-62
2021/12/12 03:24:16;;;;;;;5.73;4.47;;;6.20;99.90;;;;;;4975336;28;20767;-61
2021/12/12 03:26:44;;;;;;;7.20;5.10;;;6.10;99.90;;;;;;4974854;28;20385;-62
2021/12/12 03:29:09;;;;;;;6.07;4.90;;;6.00;99.90;;;;;;4994028;28;20421;-61
2021/12/12 03:31:41;;;;;;;5.10;4.60;;;5.80;99.90;;;;;;4994764;28;20793;-62
2021/12/12 03:34:11;;;;;;;5.43;4.50;;;5.70;99.90;;;;;;4994195;28;20187;-62
2021/12/12 03:36:38;;;;;;;7.23;4.97;;;5.60;99.90;;;;;;4994217;28;20407;-62
2021/12/12 03:39:09;;;;;;;6.40;4.50;;;5.50;99.90;;;;;;4994385;28;20797;-62
2021/12/12 03:41:36;;;;;;;7.00;4.43;;;5.40;99.90;;;;;;4993722;28;20415;-58
2021/12/12 03:44:05;;;;;;;5.27;4.30;;;5.30;99.90;;;;;;4993929;28;20412;-62
2021/12/12 03:46:31;;;;;;;8.00;5.10;;;5.20;99.90;;;;;;4993915;28;20541;-62
2021/12/12 03:48:57;;;;;;;4.40;3.83;;;5.20;99.90;;;;;;4994549;28;20527;-62
2021/12/12 03:51:25;;;;;;;5.33;4.70;;;5.10;99.90;;;;;;4994151;28;20172;-62
2021/12/12 03:53:51;;;;;;;5.73;4.00;;;5.10;99.90;;;;;;4993881;28;20451;-62
2021/12/12 03:56:17;;;;;;;6.97;4.90;;;5.00;99.90;;;;;;4994166;28;20408;-62
2021/12/12 03:58:45;;;;;;;4.27;3.70;;;5.00;99.90;;;;;;4993470;28;20590;-62
2021/12/12 04:01:32;;;;;;;5.30;4.23;;;4.90;99.90;;;;;;4994090;28;20172;-61
2021/12/12 04:04:06;;;;;;;4.67;4.17;;;4.70;99.90;;;;;;4993108;28;20457;-60
2021/12/12 04:06:32;;;;;;;6.20;3.83;;;4.70;99.90;;;;;;4993791;28;20916;-61
2021/12/12 04:08:59;;;;;;;6.10;3.97;;;4.70;99.90;;;;;;4993579;28;20439;-61
2021/12/12 04:11:38;;;;;;;4.93;4.40;;;4.70;99.90;;;;;;4993692;28;20191;-62
2021/12/12 04:14:05;;;;;;;4.27;3.87;;;4.80;99.90;;;;;;4992797;28;20818;-61
2021/12/12 04:16:33;;;;;;;3.60;3.30;;;4.80;99.90;;;;;;4993690;28;20400;-61
2021/12/12 04:19:00;;;;;;;5.40;3.50;;;4.60;99.90;;;;;;4993655;28;20428;-61
2021/12/12 04:21:27;;;;;;;6.70;3.50;;;4.50;99.90;;;;;;4993413;28;20392;-61
2021/12/12 04:23:54;;;;;;;6.10;4.53;;;4.50;99.90;;;;;;4993937;28;20760;-61
2021/12/12 04:26:27;;;;;;;6.60;3.67;;;4.40;99.90;;;;;;4993190;28;20483;-61
2021/12/12 04:29:09;;;;;;;6.13;4.33;;;4.40;99.90;;;;;;4993388;28;20424;-62
2021/12/12 04:31:39;;;;;;;7.33;4.30;;;4.40;99.90;;;;;;4993466;28;20412;-61
2021/12/12 04:34:06;;;;;;;4.20;3.63;;;4.30;99.90;;;;;;4993365;28;20450;-61
2021/12/12 04:36:40;;;;;;;4.03;3.73;;;4.10;99.90;;;;;;4993357;28;20491;-61
2021/12/12 04:39:10;;;;;;;4.63;4.07;;;4.10;99.90;;;;;;4993723;28;20760;-62
2021/12/12 04:41:36;;;;;;;6.30;4.07;;;4.10;99.90;;;;;;4993515;28;20396;-61
2021/12/12 04:44:04;;;;;;;5.77;3.73;;;4.00;99.90;;;;;;4993076;28;20498;-62
2021/12/12 04:49:54;;;;;;;7.70;4.27;;;3.90;99.90;;;;;;4993252;28;20415;-61
2021/12/12 04:52:12;;;;;;;5.20;4.70;;;3.80;99.90;;;;;;4994819;28;20832;-61
2021/12/12 04:54:49;;;;;;;7.57;5.23;;;3.70;99.90;;;;;;4997028;28;20823;-62
2021/12/12 04:57:22;;;;;;;7.93;4.47;;;3.70;99.90;;;;;;4996776;28;20435;-61
2021/12/12 05:00:02;;;;;;;5.70;5.13;;;3.80;99.90;;;;;;4997616;28;20745;-61
2021/12/12 05:02:50;;;;;;;4.73;4.33;;;3.70;99.90;;;;;;4997108;28;20471;-61
2021/12/12 05:05:22;;;;;;;5.33;4.80;;;3.60;99.90;;;;;;4997107;28;20442;-62
2021/12/12 05:08:06;;;;;;;6.20;5.17;;;3.60;99.90;;;;;;4996616;28;20479;-61
2021/12/12 05:10:54;;;;;;;6.27;5.57;;;3.60;99.90;;;;;;4997495;28;20376;-61
2021/12/12 05:13:30;;;;;;;7.30;6.27;;;3.50;99.90;;;;;;4995424;28;20457;-61
2021/12/12 05:16:06;;;;;;;8.37;6.33;;;3.30;99.90;;;;;;4997399;28;20431;-61
2021/12/12 05:18:39;;;;;;;7.27;5.90;;;3.20;99.90;;;;;;4996925;28;20474;-60
2021/12/12 05:21:11;;;;;;;6.40;5.80;;;3.20;99.90;;;;;;4996642;28;20392;-60
2021/12/12 05:23:47;;;;;;;6.53;5.80;;;3.20;99.90;;;;;;4996847;28;20404;-61
2021/12/12 05:26:20;;;;;;;8.17;5.80;;;3.20;99.90;;;;;;4996969;28;20820;-61
2021/12/12 05:28:53;;;;;;;6.20;5.60;;;3.30;99.90;;;;;;4996297;28;20480;-61
2021/12/12 05:31:21;;;;;;;6.50;5.27;;;3.40;99.90;;;;;;4996553;28;20384;-61
2021/12/12 05:33:50;;;;;;;9.40;5.33;;;3.40;99.90;;;;;;4997026;28;20973;-62
2021/12/12 05:36:17;;;;;;;5.43;4.90;;;3.40;99.90;;;;;;4996732;28;20404;-62
2021/12/12 05:38:43;;;;;;;6.53;5.43;;;3.50;99.90;;;;;;4996277;28;20416;-61
2021/12/12 05:41:10;;;;;;;5.37;4.87;;;3.50;99.90;;;;;;4996624;28;20427;-62
2021/12/12 05:43:36;;;;;;;6.23;4.70;;;3.50;99.90;;;;;;4995950;28;20992;-62
2021/12/12 05:46:03;;;;;;;8.57;4.93;;;3.50;99.90;;;;;;4996214;28;20449;-62
2021/12/12 05:48:29;;;;;;;5.97;4.50;;;3.50;99.90;;;;;;4996173;28;20902;-61
2021/12/12 05:50:56;;;;;;;5.20;4.70;;;3.50;99.90;;;;;;4993167;28;20455;-60
2021/12/12 05:53:22;;;;;;;8.40;5.30;;;3.60;99.90;;;;;;4987569;28;20462;-61
2021/12/12 05:55:49;;;;;;;7.40;5.50;;;3.70;99.90;;;;;;4996205;28;20901;-61
2021/12/12 05:58:19;;;;;;;6.50;5.20;;;3.80;99.90;;;;;;4995817;28;20963;-61
2021/12/12 06:00:51;;;;;;;6.57;5.00;;;3.80;99.90;;;;;;4995947;28;20396;-61
2021/12/12 06:03:20;;;;;;;5.33;4.87;;;3.70;99.90;;;;;;4995718;28;20404;-61
2021/12/12 06:05:46;;;;;;;5.93;4.80;;;3.70;99.90;;;;;;4995552;28;20408;-61
2021/12/12 06:08:13;;;;;;;6.83;4.73;;;3.80;99.90;;;;;;4996054;28;20432;-60
2021/12/12 06:10:42;;;;;;;5.97;5.00;;;3.70;99.90;;;;;;4995948;28;20491;-61
2021/12/12 06:13:12;;;;;;;6.00;4.63;;;3.80;99.90;;;;;;4995343;28;20458;-61
2021/12/12 06:15:39;;;;;;;7.97;5.10;;;3.80;99.90;;;;;;4996369;28;20388;-61
2021/12/12 06:18:06;;;;;;;5.23;4.73;;;3.90;99.90;;;;;;4995517;28;20420;-60
2021/12/12 06:20:31;;;;;;;5.10;4.60;;;3.90;99.90;;;;;;4995622;28;20836;-61
2021/12/12 06:22:57;;;;;;;6.77;5.47;;;3.90;99.90;;;;;;4995010;28;20432;-61
2021/12/12 06:25:24;;;;;;;5.70;5.00;;;3.90;99.90;;;;;;4995585;28;20244;-61
2021/12/12 06:27:50;;;;;;;6.37;4.87;;;3.80;99.90;;;;;;4995114;28;20180;-61
2021/12/12 06:30:21;;;;;;;6.37;5.17;;;3.80;99.90;;;;;;4978048;28;20491;-60
2021/12/12 06:32:48;;;;;;;5.43;4.93;;;3.60;99.90;;;;;;4995492;28;20188;-61
2021/12/12 06:35:15;;;;;;;5.97;5.37;;;3.60;99.90;;;;;;4995374;28;20408;-60
2021/12/12 06:37:42;;;;;;;6.40;5.00;;;3.60;99.90;;;;;;4995150;28;20415;-59
2021/12/12 06:40:11;;;;;;;7.20;4.80;;;3.50;99.90;;;;;;4995208;28;20407;-57
2021/12/12 06:42:37;;;;;;;5.10;4.70;;;3.50;99.90;;;;;;4995135;28;20427;-61
2021/12/12 06:45:04;;;;;;;5.53;5.03;;;3.40;99.90;;;;;;4995491;28;20410;-61
2021/12/12 06:47:32;;;;;;;5.73;5.17;;;3.30;99.90;;;;;;4995274;28;20203;-60
2021/12/12 06:49:59;;;;;;;4.93;4.17;;;3.30;99.90;;;;;;4995152;28;20450;-61
2021/12/12 06:52:25;;;;;;;7.07;5.80;;;3.30;99.90;;;;;;4995275;28;20852;-61
2021/12/12 06:54:52;;;;;;;7.33;6.03;;;3.30;99.90;;;;;;4995340;28;20495;-59
2021/12/12 06:57:18;;;;;;;6.50;5.80;;;3.20;99.90;;;;;;4994969;28;20523;-60
2021/12/12 06:59:47;;;;;;;7.90;6.27;;;3.20;99.90;;;;;;4995273;28;20427;-60
2021/12/12 07:02:14;;;;;;;6.00;5.40;;;3.10;99.90;;;;;;4996031;28;20404;-61
2021/12/12 07:04:43;;;;;;;10.13;5.73;;;3.00;99.90;;;;;;4995663;28;20404;-59
2021/12/12 07:07:11;;;;;;;6.43;5.83;;;3.00;99.90;;;;;;4995848;28;20427;-60
2021/12/12 07:09:38;;;;;;;6.73;5.80;;;2.90;99.90;;;;;;4998407;28;20500;-61
2021/12/12 07:12:07;;;;;;;5.73;5.23;;;2.90;99.90;;;;;;4996342;28;20415;-60
2021/12/12 07:14:34;;;;;;;6.87;5.60;;;2.90;99.90;;;;;;4996876;28;20442;-59
2021/12/12 07:17:01;;;;;;;5.40;4.73;;;2.90;99.90;;;;;;4997416;28;20978;-61
2021/12/12 07:19:27;;;;;;;6.53;5.93;;;2.70;99.90;;;;;;4995985;28;20808;-61
2021/12/12 07:21:53;;;;;;;6.20;5.23;;;2.70;99.90;;;;;;4994842;28;20446;-61
2021/12/12 07:24:21;;;;;;;5.90;5.30;;;2.70;99.90;;;;;;4994843;28;20925;-61
2021/12/12 07:26:47;;;;;;;5.97;5.37;;;2.80;99.90;;;;;;4994478;28;20778;-60
2021/12/12 07:29:13;;;;;;;6.50;5.90;;;2.80;99.90;;;;;;4994377;28;20486;-60
2021/12/12 07:31:41;;;;;;;7.90;5.83;;;2.80;99.90;;;;;;4994930;28;20227;-59
2021/12/12 07:34:12;;;;;;;7.57;6.70;;;2.90;99.90;;;;;;4994837;28;20657;-61
2021/12/12 07:36:43;;;;;;;6.57;5.83;;;2.90;99.90;;;;;;4995400;28;20810;-59
2021/12/12 07:39:12;;;;;;;8.97;6.17;;;2.90;99.90;;;;;;4995420;28;20395;-60
2021/12/12 07:41:40;;;;;;;7.70;7.00;;;2.90;99.90;;;;;;4995216;28;20427;-61
2021/12/12 07:44:12;;;;;;;7.80;6.67;;;3.10;99.90;;;;;;4999833;28;20407;-60
2021/12/12 07:46:39;;;;;;;6.93;6.23;;;3.00;99.90;;;;;;5000662;28;20399;-62
2021/12/12 07:49:06;;;;;;;7.60;6.60;;;3.10;99.90;;;;;;4998832;28;20935;-60
2021/12/12 07:51:35;;;;;;;7.73;6.23;;;3.20;99.90;;;;;;4994308;28;20435;-60
2021/12/12 07:54:03;;;;;;;6.63;5.93;;;3.40;99.90;;;;;;4994382;28;20458;-62
2021/12/12 07:56:31;;;;;;;6.47;5.77;;;3.40;99.90;;;;;;4976462;28;20780;-62
2021/12/12 07:59:00;;;;;;;7.00;5.90;;;3.50;99.90;;;;;;4993462;28;20491;-61
2021/12/12 08:01:27;;;;;;;6.30;5.33;;;3.40;99.90;;;;;;4994523;28;20952;-62
2021/12/12 08:03:56;;;;;;;7.47;5.10;;;3.70;99.90;;;;;;4993894;28;20454;-62
2021/12/12 08:06:23;;;;;;;6.20;5.17;;;3.80;99.90;;;;;;4993611;28;20491;-62
2021/12/12 08:08:49;;;;;;;5.57;5.07;;;4.20;99.90;;;;;;4993812;28;20459;-62
2021/12/12 08:11:24;;;;;;;5.13;4.60;;;4.30;99.90;;;;;;4993868;28;20411;-62
2021/12/12 08:13:50;;;;;;;4.53;4.13;;;4.30;99.90;;;;;;4993369;28;20451;-62
2021/12/12 08:16:17;;;;;;;4.73;3.80;;;4.30;99.90;;;;;;4993597;28;20396;-60
2021/12/12 08:18:44;;;;;;;5.17;4.67;;;4.50;99.90;;;;;;4993498;28;20427;-62
2021/12/12 08:21:10;;;;;;;5.23;4.33;;;4.80;99.90;;;;;;4993373;28;20396;-62
2021/12/12 08:23:37;;;;;;;4.50;4.10;;;5.10;99.90;;;;;;4993530;28;20408;-62
2021/12/12 08:26:05;;;;;;;4.50;4.10;;;5.10;99.90;;;;;;4976183;28;20746;-62
2021/12/12 08:28:31;;;;;;;4.20;3.80;;;5.10;99.90;;;;;;4993031;28;20435;-62
2021/12/12 08:30:57;;;;;;;5.13;4.63;;;5.20;99.90;;;;;;4997721;28;20928;-62
2021/12/12 08:33:24;;;;;;;4.43;4.10;;;5.30;99.90;;;;;;4997798;28;20196;-62
2021/12/12 08:35:50;;;;;;;4.33;3.83;;;5.30;99.90;;;;;;4998015;28;20396;-62
2021/12/12 08:38:16;;;;;;;3.70;3.40;;;5.10;99.90;;;;;;4997163;28;20828;-62
2021/12/12 08:40:49;;;;;;;3.70;3.40;;;5.10;99.90;;;;;;4997302;28;20662;-62
2021/12/12 08:43:17;;;;;;;4.80;4.23;;;5.30;99.90;;;;;;4996757;28;20438;-62
2021/12/12 08:45:47;;;;;;;5.30;3.50;;;5.50;99.90;;;;;;4986384;28;20405;-61
2021/12/12 08:48:16;;;;;;;3.10;2.80;;;5.30;99.90;;;;;;4977835;28;20807;-61
2021/12/12 08:50:44;;;;;;;4.40;4.00;;;5.50;99.90;;;;;;4977960;28;20483;-60
2021/12/12 08:53:10;;;;;;;3.20;2.40;;;5.70;99.90;;;;;;4977780;28;20452;-61
2021/12/12 08:55:42;;;;;;;4.37;3.97;;;5.60;99.90;;;;;;4978152;28;20405;-62
2021/12/12 08:58:15;;;;;;;3.80;3.43;;;5.50;99.90;;;;;;5018570;23;20857;-55
2021/12/12 09:01:05;;;;;;;3.57;3.27;;;5.50;99.90;;;;;;5017147;28;20393;-54
2021/12/12 09:03:40;;;;;;;3.63;3.33;;;5.50;99.90;;;;;;5017115;28;20382;-56
2021/12/12 09:06:09;;;;;;;2.80;2.60;;;5.50;99.90;;;;;;5016902;28;20466;-54
2021/12/12 09:09:10;;;;;;;3.30;3.10;;;5.40;99.90;;;;;;5017294;28;20426;-57
2021/12/12 09:11:53;;;;;;;4.40;4.00;;;5.50;99.90;;;;;;4999314;28;20978;-55
2021/12/12 09:14:21;;;;;;;3.53;3.23;;;5.40;99.90;;;;;;4996895;28;20446;-56
2021/12/12 09:16:59;;;;;;;4.40;3.90;;;5.60;99.90;;;;;;4997796;28;20416;-57
2021/12/12 09:19:32;;;;;;;4.10;3.70;;;5.50;99.90;;;;;;4999192;28;20435;-54
2021/12/12 09:22:07;;;;;;;3.93;3.53;;;5.60;99.90;;;;;;5005578;28;20535;-56
2021/12/12 09:24:33;;;;;;;3.53;3.23;;;5.80;99.90;;;;;;4997128;28;20379;-55
2021/12/12 09:27:05;;;;;;;3.33;3.03;;;5.80;99.90;;;;;;4996553;28;20403;-55
2021/12/12 09:29:45;;;;;;;4.63;3.23;;;5.80;99.90;;;;;;4996428;28;20239;-55
2021/12/12 09:32:26;;;;;;;3.70;3.40;;;6.00;99.90;;;;;;4997079;28;20384;-57
2021/12/12 09:35:07;;;;;;;3.43;3.13;;;5.90;99.90;;;;;;4996744;28;20428;-53
2021/12/12 09:37:47;;;;;;;3.53;3.23;;;5.80;99.90;;;;;;4995948;28;20435;-57
2021/12/12 09:40:24;;;;;;;3.83;3.53;;;5.90;99.90;;;;;;4996427;28;20413;-52
2021/12/12 09:43:20;;;;;;;3.37;3.07;;;5.90;99.90;;;;;;5005103;28;20399;-55
2021/12/12 09:46:09;;;;;;;8.03;3.93;;;5.90;99.90;;;;;;4998901;28;20411;-57
2021/12/12 09:52:18;;;;;;;4.00;3.70;;;6.20;99.90;;;;;;5016646;28;20457;-55
2021/12/12 09:54:51;;;;;;;4.60;4.20;;;6.10;99.90;;;;;;5016513;28;20432;-53
2021/12/12 09:57:19;;;;;;;5.60;4.07;;;6.30;99.90;;;;;;5016556;28;20811;-57
2021/12/12 10:00:05;;;;;;;6.77;5.67;;;6.60;99.90;;;;;;5015696;28;20395;-55
2021/12/12 10:02:42;;;;;;;3.67;3.37;;;6.40;99.90;;;;;;5016180;28;20384;-57
2021/12/12 10:05:26;;;;;;;3.60;3.30;;;6.60;99.90;;;;;;5015810;28;20408;-54
2021/12/12 10:08:22;;;;;;;3.87;3.40;;;6.90;99.90;;;;;;5015901;28;20423;-54
2021/12/12 10:10:54;;;;;;;3.50;3.20;;;6.80;99.90;;;;;;5016019;28;20406;-56
2021/12/12 10:13:39;;;;;;;3.80;3.33;;;6.70;99.90;;;;;;4997691;28;20835;-56
2021/12/12 10:16:17;;;;;;;3.87;3.20;;;6.90;99.90;;;;;;5015714;28;20424;-58
2021/12/12 10:19:01;;;;;;;3.67;3.10;;;7.00;99.90;;;;;;5015325;28;20430;-55
2021/12/12 10:21:32;;;;;;;2.90;2.70;;;6.90;99.90;;;;;;5015357;28;20389;-58
2021/12/12 10:24:13;;;;;;;3.23;2.70;;;6.90;99.90;;;;;;5015270;28;20443;-57
2021/12/12 10:26:46;;;;;;;3.40;2.80;;;7.00;99.90;;;;;;5015396;28;20393;-54
2021/12/12 10:29:23;;;;;;;3.33;3.00;;;7.10;99.90;;;;;;5014918;28;21020;-56
2021/12/12 10:31:54;;;;;;;4.60;2.70;;;7.30;99.90;;;;;;5015365;28;20411;-58
2021/12/12 10:34:45;;;;;;;3.10;2.80;;;7.40;99.90;;;;;;5015327;28;20532;-54
2021/12/12 10:37:24;;;;;;;3.20;2.40;;;7.40;99.90;;;;;;5015324;28;20395;-53
2021/12/12 10:40:04;;;;;;;3.07;2.60;;;7.30;99.90;;;;;;5003635;28;20415;-56
2021/12/12 10:42:36;;;;;;;3.20;2.90;;;7.50;99.90;;;;;;5001547;28;20411;-56
2021/12/12 10:45:16;;;;;;;3.47;2.80;;;7.50;99.90;;;;;;5014867;28;20918;-57
2021/12/12 10:47:54;;;;;;;3.17;2.70;;;7.60;99.90;;;;;;5015205;28;20432;-57
2021/12/12 10:50:31;;;;;;;2.63;2.43;;;7.50;99.90;;;;;;5015051;28;20420;-56
2021/12/12 10:53:18;;;;;;;4.27;2.63;;;7.40;99.90;;;;;;5014807;28;20481;-56
2021/12/12 10:56:06;;;;;;;4.37;3.00;;;7.50;99.90;;;;;;5014976;28;20393;-58
2021/12/12 10:58:52;;;;;;;3.37;2.57;;;7.70;99.90;;;;;;5014398;28;20446;-59
2021/12/12 11:01:31;;;;;;;2.80;2.37;;;8.00;99.90;;;;;;5014814;28;20406;-55
2021/12/12 11:04:09;;;;;;;3.70;2.30;;;8.00;99.90;;;;;;5015129;28;20751;-56
2021/12/12 11:06:41;;;;;;;4.73;2.20;;;8.30;99.90;;;;;;5015197;28;20786;-55
2021/12/12 11:09:50;;;;;;;3.07;2.43;;;8.40;99.90;;;;;;5014520;28;21007;-55
2021/12/12 11:12:26;;;;;;;3.83;3.10;;;8.40;99.90;;;;;;5014730;28;20419;-57
2021/12/12 11:15:08;;;;;;;2.63;2.40;;;8.40;99.90;;;;;;5014710;28;20433;-55
2021/12/12 11:17:41;;;;;;;3.43;2.50;;;8.90;99.90;;;;;;5014376;28;20454;-58
2021/12/12 11:20:27;;;;;;;5.40;2.90;;;9.60;99.90;;;;;;5014333;28;20775;-58
2021/12/12 11:23:03;;;;;;;4.43;2.70;;;9.70;99.90;;;;;;5014217;28;20751;-55
2021/12/12 11:25:42;;;;;;;4.53;2.77;;;9.40;99.90;;;;;;4997847;28;20812;-58
2021/12/12 11:28:16;;;;;;;3.13;2.37;;;9.10;99.90;;;;;;5014487;28;20432;-56
2021/12/12 11:30:57;;;;;;;4.30;2.30;;;8.90;99.90;;;;;;5013994;28;20388;-52
2021/12/12 11:33:25;;;;;;;2.97;2.43;;;9.00;99.90;;;;;;5013940;28;20508;-57
2021/12/12 11:35:55;;;;;;;3.33;2.27;;;8.90;99.90;;;;;;5014520;28;20440;-55
2021/12/12 11:38:38;;;;;;;2.20;2.00;;;8.90;99.90;;;;;;5013933;28;20520;-58
2021/12/12 11:41:16;;;;;;;2.37;2.17;;;8.70;99.90;;;;;;5013979;28;20935;-58
2021/12/12 11:44:16;;;;;;;2.20;2.00;;;8.80;99.90;;;;;;5014165;28;20456;-55
2021/12/12 11:47:07;;;;;;;4.90;2.80;;;8.60;99.90;;;;;;5014064;28;20523;-56
2021/12/12 11:50:11;;;;;;;2.40;2.20;;;8.20;99.90;;;;;;5014003;28;20402;-55
2021/12/12 11:52:52;;;;;;;4.07;1.97;;;8.20;99.90;;;;;;4998056;28;20932;-58
2021/12/12 11:55:29;;;;;;;5.50;3.20;;;8.30;99.90;;;;;;5014032;28;20540;-58
2021/12/12 11:58:25;;;;;;;3.57;2.57;;;8.20;99.90;;;;;;5014010;28;20461;-57
2021/12/12 12:01:18;;;;;;;3.70;2.53;;;8.10;99.90;;;;;;5013904;28;20420;-55
2021/12/12 12:04:11;;;;;;;3.63;2.10;;;8.40;99.90;;;;;;5013675;28;20394;-57
2021/12/12 12:06:55;;;;;;;2.80;2.50;;;8.50;99.90;;;;;;5014495;28;20395;-57
2021/12/12 12:09:53;;;;;;;2.80;2.50;;;8.30;99.90;;;;;;5013846;28;20447;-57
2021/12/12 12:12:36;;;;;;;3.30;2.20;;;8.20;99.90;;;;;;4996350;28;20427;-56
2021/12/12 12:15:25;;;;;;;2.93;2.13;;;8.40;99.90;;;;;;4987243;28;20454;-58
2021/12/12 12:18:03;;;;;;;2.60;2.10;;;8.20;99.90;;;;;;4976979;28;20436;-58
2021/12/12 12:20:53;;;;;;;2.53;2.00;;;8.20;99.90;;;;;;4995941;28;20403;-57
2021/12/12 12:29:28;;;;;;;5.23;2.20;;;8.60;99.90;;;;;;5013525;28;20776;-57
2021/12/12 12:32:31;;;;;;;2.57;2.33;;;8.70;99.90;;;;;;4994843;28;20487;-57
2021/12/12 12:35:53;;;;;;;2.13;1.93;;;8.60;99.90;;;;;;5013484;28;20442;-56
2021/12/12 12:38:56;;;;;;;2.13;1.93;;;8.80;99.90;;;;;;5013361;28;20434;-58
2021/12/12 12:41:52;;;;;;;2.33;2.13;;;8.70;99.90;;;;;;5013603;28;20389;-55
2021/12/12 12:44:55;;;;;;;2.80;2.10;;;8.50;99.90;;;;;;4993639;28;20420;-57
2021/12/12 12:47:58;;;;;;;3.10;2.10;;;8.40;99.90;;;;;;4993616;28;20498;-57
2021/12/12 12:50:50;;;;;;;2.00;1.90;;;8.50;99.90;;;;;;4993698;28;20409;-58
2021/12/12 12:53:40;;;;;;;3.00;2.10;;;8.60;99.90;;;;;;4976394;28;21016;-56
2021/12/12 12:56:11;;;;;;;5.00;2.50;;;8.90;99.90;;;;;;4994055;28;20752;-52
2021/12/12 12:59:18;;;;;;;2.83;2.30;;;8.80;99.90;;;;;;4993494;28;20444;-53
2021/12/12 13:01:58;;;;;;;2.80;2.40;;;8.70;99.90;;;;;;4994177;28;20502;-54
2021/12/12 13:04:30;;;;;;;3.23;2.30;;;8.70;99.90;;;;;;4994152;28;20387;-54
2021/12/12 13:07:25;;;;;;;3.17;2.00;;;8.60;99.90;;;;;;4993476;28;20396;-54
2021/12/12 13:10:02;;;;;;;2.20;2.00;;;8.40;99.90;;;;;;4993967;28;20467;-58
2021/12/12 13:12:47;;;;;;;3.03;2.40;;;8.50;99.90;;;;;;4982095;28;20786;-57
2021/12/12 13:15:31;;;;;;;2.33;2.13;;;8.60;99.90;;;;;;5016548;28;20435;-57
2021/12/12 13:18:08;;;;;;;2.93;1.93;;;8.60;99.90;;;;;;5016943;28;20421;-55
2021/12/12 13:20:37;;;;;;;2.50;2.30;;;8.70;99.90;;;;;;5015056;28;20443;-56
2021/12/12 13:23:27;;;;;;;3.80;2.70;;;9.10;99.90;;;;;;5015212;28;20418;-56
2021/12/12 13:26:06;;;;;;;2.30;2.10;;;8.90;99.90;;;;;;5016600;28;20380;-56
2021/12/12 13:28:52;;;;;;;3.13;2.60;;;8.80;99.90;;;;;;5016551;28;20416;-56
2021/12/12 13:31:27;;;;;;;2.30;2.07;;;8.70;99.90;;;;;;5016559;28;20403;-56
2021/12/12 13:34:18;;;;;;;2.97;2.40;;;8.50;99.90;;;;;;5016371;28;20939;-57
2021/12/12 13:37:16;;;;;;;3.03;2.73;;;8.50;99.90;;;;;;5016287;28;20395;-55
2021/12/12 13:39:51;;;;;;;3.90;2.53;;;8.50;99.90;;;;;;5016321;28;20386;-56
2021/12/12 13:42:48;;;;;;;2.70;2.33;;;8.50;99.90;;;;;;5016673;28;20419;-57
2021/12/12 13:45:52;;;;;;;2.57;2.37;;;8.60;99.90;;;;;;5016652;28;20396;-57
2021/12/12 13:48:32;;;;;;;2.70;2.33;;;8.60;99.90;;;;;;4972222;28;20779;-55
2021/12/12 13:51:09;;;;;;;5.20;2.20;;;8.30;99.90;;;;;;5016035;28;20392;-57
2021/12/12 13:54:03;;;;;;;2.80;2.17;;;8.40;99.90;;;;;;5015959;28;20447;-57
2021/12/12 13:56:46;;;;;;;2.63;2.27;;;8.60;99.90;;;;;;5015623;28;20415;-55
2021/12/12 13:59:50;;;;;;;4.17;2.20;;;8.80;99.90;;;;;;4998440;28;20466;-56
2021/12/12 14:02:17;;;;;;;4.23;3.00;;;8.80;99.90;;;;;;5015908;28;20407;-57
2021/12/12 14:04:57;;;;;;;2.73;2.53;;;8.80;99.90;;;;;;5016092;28;20414;-57